createdAt,value
2017-10-18T00:02:16.997Z,3.63
2017-10-18T00:04:44.597Z,3.30
2017-10-18T00:07:12.957Z,4.40
2017-10-18T00:09:40.585Z,6.33
2017-10-18T00:12:08.182Z,3.87
2017-10-18T00:14:36.573Z,3.60
2017-10-18T00:17:04.944Z,5.30
2017-10-18T00:19:32.573Z,5.40
2017-10-18T00:22:00.165Z,4.03
2017-10-18T00:24:29.269Z,6.40
2017-10-18T00:26:57.648Z,4.17
2017-10-18T00:29:26.019Z,3.40
2017-10-18T00:31:54.421Z,4.43
2017-10-18T00:34:22.028Z,6.00
2017-10-18T00:36:49.622Z,3.50
2017-10-18T00:39:18.030Z,4.10
2017-10-18T00:41:45.636Z,4.40
2017-10-18T00:44:13.274Z,3.87
2017-10-18T00:46:40.883Z,3.90
2017-10-18T00:49:09.245Z,4.97
2017-10-18T00:51:36.873Z,5.33
2017-10-18T00:54:04.486Z,4.10
2017-10-18T00:56:32.897Z,4.40
2017-10-18T00:59:00.505Z,4.10
2017-10-18T01:01:28.122Z,6.20
2017-10-18T01:03:55.747Z,4.27
2017-10-18T01:06:24.224Z,3.97
2017-10-18T01:08:51.849Z,4.37
2017-10-18T01:11:19.444Z,3.97
2017-10-18T01:13:47.073Z,4.80
2017-10-18T01:16:14.673Z,4.20
2017-10-18T01:18:43.029Z,6.60
2017-10-18T01:21:10.653Z,5.77
2017-10-18T01:23:38.257Z,4.07
2017-10-18T01:26:05.883Z,3.73
2017-10-18T01:28:33.480Z,4.67
2017-10-18T01:31:01.113Z,4.70
2017-10-18T01:33:28.713Z,4.53
2017-10-18T01:35:56.308Z,4.13
2017-10-18T01:38:23.926Z,4.33
2017-10-18T01:40:51.526Z,4.53
2017-10-18T01:43:19.169Z,4.33
2017-10-18T01:45:47.533Z,4.43
2017-10-18T01:48:15.901Z,4.07
2017-10-18T01:50:43.532Z,4.23
2017-10-18T01:53:11.131Z,5.90
2017-10-18T01:55:40.265Z,4.00
2017-10-18T01:58:07.861Z,4.40
2017-10-18T02:00:35.461Z,4.60
2017-10-18T02:03:03.890Z,4.30
2017-10-18T02:05:31.491Z,5.23
2017-10-18T02:07:59.114Z,4.97
2017-10-18T02:10:26.713Z,3.73
2017-10-18T02:12:54.345Z,4.80
2017-10-18T02:15:21.946Z,4.40
2017-10-18T02:17:50.313Z,5.27
2017-10-18T02:20:17.975Z,5.53
2017-10-18T02:22:46.369Z,5.17
2017-10-18T02:25:14.735Z,3.53
2017-10-18T02:27:43.106Z,4.37
2017-10-18T02:30:10.727Z,5.23
2017-10-18T02:32:38.332Z,4.73
2017-10-18T02:35:06.734Z,4.67
2017-10-18T02:37:34.354Z,4.33
2017-10-18T02:40:02.004Z,4.10
2017-10-18T02:42:29.600Z,4.77
2017-10-18T02:44:57.965Z,4.03
2017-10-18T02:47:25.598Z,4.53
2017-10-18T02:49:53.197Z,4.50
2017-10-18T02:52:21.580Z,5.30
2017-10-18T02:54:49.956Z,4.57
2017-10-18T02:57:18.360Z,4.80
2017-10-18T02:59:45.963Z,5.00
2017-10-18T03:02:13.561Z,3.80
2017-10-18T03:04:41.958Z,4.50
2017-10-18T03:07:09.561Z,4.40
2017-10-18T03:09:37.188Z,4.73
2017-10-18T03:12:04.777Z,5.50
2017-10-18T03:14:32.379Z,4.67
2017-10-18T03:17:00.771Z,4.27
2017-10-18T03:19:28.386Z,5.43
2017-10-18T03:21:56.006Z,4.90
2017-10-18T03:24:23.610Z,4.30
2017-10-18T03:26:51.205Z,4.30
2017-10-18T03:29:19.601Z,5.47
2017-10-18T03:31:47.197Z,4.63
2017-10-18T03:34:14.823Z,5.47
2017-10-18T03:36:42.517Z,4.90
2017-10-18T03:39:10.117Z,4.90
2017-10-18T03:41:38.504Z,4.70
2017-10-18T03:44:06.885Z,5.70
2017-10-18T03:46:35.282Z,4.30
2017-10-18T03:49:02.881Z,5.80
2017-10-18T03:51:30.480Z,3.70
2017-10-18T03:53:58.865Z,5.67
2017-10-18T03:56:27.228Z,5.63
2017-10-18T03:58:54.865Z,5.23
2017-10-18T04:01:22.465Z,4.33
2017-10-18T04:03:50.830Z,4.40
2017-10-18T04:06:18.457Z,6.10
2017-10-18T04:08:46.058Z,6.00
2017-10-18T04:11:14.452Z,4.80
2017-10-18T04:13:42.810Z,4.83
2017-10-18T04:16:10.440Z,6.00
2017-10-18T04:18:38.106Z,5.27
2017-10-18T04:21:06.049Z,5.90
2017-10-18T04:23:33.688Z,5.33
2017-10-18T04:26:01.299Z,4.43
2017-10-18T04:28:28.928Z,3.90
2017-10-18T04:30:56.534Z,4.73
2017-10-18T04:33:24.196Z,6.17
2017-10-18T04:35:51.797Z,5.90
2017-10-18T04:38:19.400Z,4.33
2017-10-18T04:40:47.022Z,4.50
2017-10-18T04:43:14.625Z,4.60
2017-10-18T04:45:42.268Z,6.33
2017-10-18T04:48:09.879Z,6.10
2017-10-18T04:50:38.253Z,4.80
2017-10-18T04:53:05.881Z,5.47
2017-10-18T04:55:33.497Z,6.50
2017-10-18T04:58:01.890Z,5.87
2017-10-18T05:00:29.485Z,4.80
2017-10-18T05:02:57.112Z,4.40
2017-10-18T05:05:24.716Z,6.87
2017-10-18T05:07:52.309Z,5.57
2017-10-18T05:10:20.733Z,4.50
2017-10-18T05:12:48.332Z,4.10
2017-10-18T05:15:15.957Z,7.37
2017-10-18T05:17:43.555Z,8.90
2017-10-18T05:20:11.178Z,8.00
2017-10-18T05:22:38.776Z,4.87
2017-10-18T05:25:06.426Z,7.00
2017-10-18T05:27:34.908Z,5.80
2017-10-18T05:30:02.510Z,7.10
2017-10-18T05:32:30.142Z,5.57
2017-10-18T05:34:58.514Z,4.97
2017-10-18T05:37:26.146Z,6.30
2017-10-18T05:39:53.748Z,6.47
2017-10-18T05:42:22.141Z,5.83
2017-10-18T05:44:49.744Z,4.83
2017-10-18T05:47:17.339Z,5.30
2017-10-18T05:49:44.958Z,5.60
2017-10-18T05:52:12.561Z,5.37
2017-10-18T05:54:40.197Z,5.87
2017-10-18T05:57:07.785Z,5.97
2017-10-18T05:59:36.177Z,5.27
2017-10-18T06:02:04.577Z,7.43
2017-10-18T06:04:32.213Z,4.90
2017-10-18T06:07:00.585Z,5.50
2017-10-18T06:09:28.959Z,5.33
2017-10-18T06:11:56.581Z,5.53
2017-10-18T06:14:24.180Z,4.60
2017-10-18T06:16:51.841Z,4.77
2017-10-18T06:19:19.698Z,7.07
2017-10-18T06:21:47.333Z,5.90
2017-10-18T06:24:14.932Z,4.87
2017-10-18T06:26:42.571Z,6.00
2017-10-18T06:29:10.197Z,6.80
2017-10-18T06:31:37.813Z,5.30
2017-10-18T06:34:06.210Z,6.43
2017-10-18T06:36:34.581Z,4.10
2017-10-18T06:39:02.981Z,5.60
2017-10-18T06:41:30.573Z,7.00
2017-10-18T06:43:58.172Z,5.73
2017-10-18T06:46:25.794Z,6.20
2017-10-18T06:48:53.400Z,4.97
2017-10-18T06:51:21.793Z,5.33
2017-10-18T06:53:50.154Z,6.07
2017-10-18T06:56:18.541Z,6.97
2017-10-18T06:58:46.913Z,6.40
2017-10-18T07:01:15.322Z,6.10
2017-10-18T07:03:42.923Z,6.87
2017-10-18T07:06:10.537Z,5.13
2017-10-18T07:08:38.165Z,6.67
2017-10-18T07:11:05.763Z,7.00
2017-10-18T07:13:33.389Z,6.83
2017-10-18T07:16:01.009Z,6.47
2017-10-18T07:18:28.643Z,6.87
2017-10-18T07:20:56.238Z,7.00
2017-10-18T07:23:23.871Z,5.87
2017-10-18T07:25:51.497Z,6.53
2017-10-18T07:28:19.962Z,6.57
2017-10-18T07:30:49.100Z,7.23
2017-10-18T07:33:16.694Z,6.93
2017-10-18T07:35:44.329Z,6.10
2017-10-18T07:38:12.118Z,5.30
2017-10-18T07:40:39.821Z,8.03
2017-10-18T07:43:07.535Z,8.67
2017-10-18T07:45:35.200Z,8.13
2017-10-18T07:48:02.842Z,9.47
2017-10-18T07:50:30.542Z,8.47
2017-10-18T07:52:58.267Z,9.03
2017-10-18T07:55:26.000Z,7.40
2017-10-18T07:57:54.452Z,7.60
2017-10-18T08:00:22.217Z,7.83
2017-10-18T08:02:49.999Z,7.50
2017-10-18T08:05:17.756Z,7.40
2017-10-18T08:07:45.459Z,6.33
2017-10-18T08:10:13.132Z,7.50
2017-10-18T08:12:40.941Z,6.37
2017-10-18T08:15:08.805Z,7.10
2017-10-18T08:17:36.573Z,6.33
2017-10-18T08:20:05.033Z,4.70
2017-10-18T08:22:32.809Z,7.03
2017-10-18T08:25:00.667Z,7.20
2017-10-18T08:27:28.452Z,7.90
2017-10-18T08:29:56.226Z,6.03
2017-10-18T08:32:23.897Z,5.30
2017-10-18T08:34:51.567Z,6.20
2017-10-18T08:37:20.118Z,5.90
2017-10-18T08:39:47.877Z,8.30
2017-10-18T08:42:15.567Z,7.00
2017-10-18T08:44:43.223Z,5.27
2017-10-18T08:47:13.278Z,7.47
2017-10-18T08:49:41.298Z,6.30
2017-10-18T08:52:09.160Z,5.40
2017-10-18T08:54:36.806Z,6.27
2017-10-18T08:57:04.527Z,5.90
2017-10-18T08:59:32.941Z,6.00
2017-10-18T09:02:00.595Z,8.13
2017-10-18T09:04:28.351Z,6.50
2017-10-18T09:06:56.020Z,6.93
2017-10-18T09:09:23.694Z,6.80
2017-10-18T09:11:51.291Z,6.37
2017-10-18T09:14:18.882Z,6.97
2017-10-18T09:16:46.500Z,6.50
2017-10-18T09:19:14.103Z,5.77
2017-10-18T09:21:41.845Z,5.60
2017-10-18T09:24:09.560Z,6.10
2017-10-18T09:26:37.214Z,4.87
2017-10-18T09:29:04.930Z,5.67
2017-10-18T09:31:32.629Z,6.40
2017-10-18T09:34:00.354Z,6.00
2017-10-18T09:36:28.020Z,5.67
2017-10-18T09:38:55.638Z,5.63
2017-10-18T09:41:23.411Z,6.37
2017-10-18T09:43:51.055Z,5.67
2017-10-18T09:46:18.767Z,6.17
2017-10-18T09:48:46.404Z,6.53
2017-10-18T09:51:14.084Z,6.30
2017-10-18T09:53:42.506Z,6.03
2017-10-18T09:56:10.109Z,6.13
2017-10-18T09:58:37.750Z,5.97
2017-10-18T10:01:05.357Z,5.63
2017-10-18T10:03:33.077Z,6.07
2017-10-18T10:06:00.703Z,6.33
2017-10-18T10:08:28.309Z,4.60
2017-10-18T10:10:55.933Z,5.00
2017-10-18T10:13:23.525Z,6.40
2017-10-18T10:15:53.516Z,5.33
2017-10-18T10:18:21.266Z,4.47
2017-10-18T10:20:48.862Z,6.10
2017-10-18T10:23:16.549Z,5.07
2017-10-18T10:25:44.148Z,5.83
2017-10-18T10:28:11.765Z,5.27
2017-10-18T10:30:39.373Z,5.30
2017-10-18T10:33:07.059Z,5.53
2017-10-18T10:35:34.732Z,4.87
2017-10-18T10:38:02.527Z,4.90
2017-10-18T10:40:30.272Z,4.93
2017-10-18T10:42:57.991Z,4.07
2017-10-18T10:45:25.802Z,3.87
2017-10-18T10:47:54.299Z,4.33
2017-10-18T10:50:21.931Z,3.93
2017-10-18T10:52:49.529Z,3.70
2017-10-18T10:55:17.161Z,3.90
2017-10-18T10:57:44.758Z,4.40
2017-10-18T11:00:13.117Z,4.70
2017-10-18T11:02:40.750Z,3.60
2017-10-18T11:05:08.359Z,5.63
2017-10-18T11:07:36.753Z,5.20
2017-10-18T11:10:04.357Z,4.70
2017-10-18T11:12:32.010Z,4.33
2017-10-18T11:14:59.616Z,4.83
2017-10-18T11:17:27.262Z,4.03
2017-10-18T11:19:55.155Z,4.50
2017-10-18T11:22:23.521Z,4.30
2017-10-18T11:24:51.914Z,4.13
2017-10-18T11:27:20.283Z,4.60
2017-10-18T11:29:48.677Z,4.13
2017-10-18T11:32:17.043Z,4.50
2017-10-18T11:34:45.410Z,3.90
2017-10-18T11:37:13.060Z,3.27
2017-10-18T11:39:40.656Z,2.73
2017-10-18T11:42:09.048Z,4.00
2017-10-18T11:44:36.655Z,3.67
2017-10-18T11:47:04.281Z,3.97
2017-10-18T11:49:31.884Z,3.70
2017-10-18T11:51:59.538Z,3.27
2017-10-18T11:54:27.148Z,3.20
2017-10-18T11:56:54.765Z,3.13
2017-10-18T11:59:22.398Z,4.20
2017-10-18T12:01:49.994Z,3.63
2017-10-18T12:04:17.619Z,2.77
2017-10-18T12:06:45.221Z,3.57
2017-10-18T12:09:12.859Z,2.87
2017-10-18T12:11:40.461Z,3.07
2017-10-18T12:14:08.825Z,3.20
2017-10-18T12:16:37.222Z,2.90
2017-10-18T12:19:05.585Z,3.50
2017-10-18T12:21:33.985Z,3.30
2017-10-18T12:24:01.601Z,2.83
2017-10-18T12:26:29.228Z,2.20
2017-10-18T12:28:56.825Z,3.50
2017-10-18T12:31:24.462Z,3.20
2017-10-18T12:33:52.096Z,2.93
2017-10-18T12:36:19.688Z,2.63
2017-10-18T12:38:47.317Z,2.50
2017-10-18T12:41:14.925Z,3.03
2017-10-18T12:43:42.553Z,3.63
2017-10-18T12:46:10.154Z,2.70
2017-10-18T12:48:37.765Z,3.60
2017-10-18T12:51:05.395Z,3.17
2017-10-18T12:53:33.762Z,2.80
2017-10-18T12:56:01.401Z,3.47
2017-10-18T12:58:29.002Z,4.60
2017-10-18T13:00:57.410Z,4.30
2017-10-18T13:03:25.024Z,4.80
2017-10-18T13:05:52.620Z,4.20
2017-10-18T13:08:20.233Z,4.40
2017-10-18T13:10:47.842Z,3.63
2017-10-18T13:13:15.484Z,3.50
2017-10-18T13:15:43.864Z,2.93
2017-10-18T13:18:12.218Z,3.03
2017-10-18T13:20:39.845Z,3.97
2017-10-18T13:23:07.866Z,5.13
2017-10-18T13:25:36.278Z,3.40
2017-10-18T13:28:03.896Z,3.20
2017-10-18T13:30:31.494Z,6.40
2017-10-18T13:32:59.125Z,5.90
2017-10-18T13:35:26.849Z,4.77
2017-10-18T13:37:54.660Z,4.30
2017-10-18T13:40:23.023Z,4.33
2017-10-18T13:42:50.715Z,6.73
2017-10-18T13:45:18.328Z,4.73
2017-10-18T13:47:45.938Z,8.63
2017-10-18T13:50:13.558Z,8.90
2017-10-18T13:52:41.157Z,8.43
2017-10-18T13:55:09.546Z,7.80
2017-10-18T13:57:37.140Z,6.40
2017-10-18T14:00:04.769Z,4.87
2017-10-18T14:02:32.364Z,5.77
2017-10-18T14:05:00.002Z,6.30
2017-10-18T14:07:27.669Z,4.97
2017-10-18T14:09:55.269Z,6.40
2017-10-18T14:12:22.925Z,9.60
2017-10-18T14:14:50.517Z,8.13
2017-10-18T14:17:18.910Z,6.73
2017-10-18T14:19:46.505Z,6.97
2017-10-18T14:22:14.101Z,6.70
2017-10-18T14:24:42.507Z,6.17
2017-10-18T14:27:10.098Z,5.80
2017-10-18T14:29:37.721Z,7.00
2017-10-18T14:32:06.086Z,5.77
2017-10-18T14:34:34.562Z,5.70
2017-10-18T14:37:02.158Z,3.90
2017-10-18T14:39:29.756Z,4.67
2017-10-18T14:41:57.461Z,5.20
2017-10-18T14:44:25.829Z,4.00
2017-10-18T14:46:54.208Z,4.60
2017-10-18T14:49:22.585Z,4.37
2017-10-18T14:51:50.982Z,4.33
2017-10-18T14:54:19.340Z,4.60
2017-10-18T14:56:46.937Z,4.37
2017-10-18T14:59:14.561Z,4.73
2017-10-18T15:01:42.156Z,4.40
2017-10-18T15:04:09.779Z,3.77
2017-10-18T15:06:37.384Z,4.07
2017-10-18T15:09:05.055Z,4.10
2017-10-18T15:11:32.661Z,4.77
2017-10-18T15:14:00.253Z,3.93
2017-10-18T15:16:27.881Z,4.43
2017-10-18T15:18:55.481Z,4.17
2017-10-18T15:21:23.113Z,4.60
2017-10-18T15:23:51.480Z,5.00
2017-10-18T15:26:19.117Z,3.73
2017-10-18T15:28:46.713Z,5.00
2017-10-18T15:31:15.078Z,3.53
2017-10-18T15:33:42.705Z,4.60
2017-10-18T15:36:10.306Z,4.23
2017-10-18T15:38:37.969Z,4.57
2017-10-18T15:41:05.702Z,5.40
2017-10-18T15:43:33.351Z,4.13
2017-10-18T15:46:00.988Z,4.07
2017-10-18T15:48:28.617Z,5.70
2017-10-18T15:50:56.246Z,4.40
2017-10-18T15:53:24.618Z,5.67
2017-10-18T15:55:52.241Z,4.97
2017-10-18T15:58:19.850Z,5.20
2017-10-18T16:00:47.522Z,5.20
2017-10-18T16:03:15.928Z,5.03
2017-10-18T16:05:43.551Z,5.00
2017-10-18T16:08:11.169Z,5.27
2017-10-18T16:10:38.782Z,5.43
2017-10-18T16:13:06.433Z,5.57
2017-10-18T16:15:34.045Z,5.27
2017-10-18T16:18:01.717Z,5.40
2017-10-18T16:20:29.313Z,4.37
2017-10-18T16:22:57.048Z,5.53
2017-10-18T16:25:24.669Z,5.37
2017-10-18T16:27:52.261Z,4.47
2017-10-18T16:30:19.889Z,5.90
2017-10-18T16:32:47.483Z,5.70
2017-10-18T16:35:15.110Z,4.30
2017-10-18T16:37:42.708Z,4.23
2017-10-18T16:40:10.310Z,4.27
2017-10-18T16:42:37.938Z,5.87
2017-10-18T16:45:05.843Z,5.00
2017-10-18T16:47:33.473Z,4.27
2017-10-18T16:50:01.077Z,4.43
2017-10-18T16:52:28.868Z,4.10
2017-10-18T16:54:56.869Z,4.80
2017-10-18T16:57:24.676Z,4.50
2017-10-18T16:59:52.452Z,3.90
2017-10-18T17:02:20.152Z,4.70
2017-10-18T17:04:47.922Z,3.90
2017-10-18T17:07:15.655Z,4.17
2017-10-18T17:09:44.217Z,4.77
2017-10-18T17:12:12.020Z,3.60
2017-10-18T17:14:40.194Z,4.00
2017-10-18T17:17:08.953Z,5.20
2017-10-18T17:19:38.082Z,5.70
2017-10-18T17:22:05.970Z,4.63
2017-10-18T17:24:34.227Z,4.43
2017-10-18T17:27:02.040Z,4.33
2017-10-18T17:29:29.780Z,3.80
2017-10-18T17:31:57.771Z,4.30
2017-10-18T17:34:26.207Z,5.30
2017-10-18T17:36:53.991Z,4.07
2017-10-18T17:39:21.967Z,4.47
2017-10-18T17:41:49.711Z,4.37
2017-10-18T17:44:17.543Z,4.37
2017-10-18T17:46:46.133Z,5.73
2017-10-18T17:49:14.698Z,5.23
2017-10-18T17:51:42.557Z,4.10
2017-10-18T17:54:10.335Z,4.67
2017-10-18T17:56:38.880Z,5.80
2017-10-18T17:59:06.644Z,6.43
2017-10-18T18:01:34.459Z,5.70
2017-10-18T18:04:02.846Z,5.30
2017-10-18T18:06:30.449Z,5.03
2017-10-18T18:08:58.081Z,4.07
2017-10-18T18:11:25.684Z,4.80
2017-10-18T18:13:53.314Z,4.10
2017-10-18T18:16:20.911Z,4.03
2017-10-18T18:18:48.554Z,4.30
2017-10-18T18:21:16.150Z,5.33
2017-10-18T18:23:43.752Z,5.00
2017-10-18T18:26:11.377Z,5.23
2017-10-18T18:28:39.744Z,5.33
2017-10-18T18:31:07.366Z,9.20
2017-10-18T18:33:34.977Z,7.50
2017-10-18T18:36:03.930Z,6.83
2017-10-18T18:38:31.602Z,5.77
2017-10-18T18:40:59.197Z,5.37
2017-10-18T18:43:27.819Z,6.50
2017-10-18T18:45:55.576Z,6.10
2017-10-18T18:48:23.349Z,6.70
2017-10-18T18:50:51.114Z,8.47
2017-10-18T18:53:18.896Z,7.13
2017-10-18T18:55:46.639Z,6.33
2017-10-18T18:58:16.166Z,6.60
2017-10-18T19:00:44.045Z,6.73
2017-10-18T19:03:11.817Z,6.37
2017-10-18T19:05:39.671Z,4.20
2017-10-18T19:08:07.410Z,3.87
2017-10-18T19:10:35.231Z,3.50
2017-10-18T19:13:03.803Z,6.50
2017-10-18T19:15:31.471Z,5.90
2017-10-18T19:17:59.866Z,5.80
2017-10-18T19:20:28.248Z,5.03
2017-10-18T19:22:56.644Z,7.37
2017-10-18T19:25:24.254Z,7.70
2017-10-18T19:27:51.881Z,6.77
2017-10-18T19:30:19.477Z,6.97
2017-10-18T19:32:47.080Z,6.90
2017-10-18T19:35:14.703Z,6.73
2017-10-18T19:37:42.300Z,6.93
2017-10-18T19:40:09.941Z,7.20
2017-10-18T19:42:38.305Z,7.80
2017-10-18T19:45:06.302Z,7.20
2017-10-18T19:47:33.901Z,7.63
2017-10-18T19:50:01.502Z,7.33
2017-10-18T19:52:29.894Z,6.40
2017-10-18T19:54:58.257Z,5.87
2017-10-18T19:57:26.668Z,6.80
2017-10-18T19:59:54.265Z,6.50
2017-10-18T20:02:21.900Z,6.40
2017-10-18T20:04:49.510Z,6.37
2017-10-18T20:07:17.122Z,6.07
2017-10-18T20:09:44.755Z,5.57
2017-10-18T20:12:13.125Z,5.93
2017-10-18T20:14:41.540Z,6.03
2017-10-18T20:17:09.141Z,4.90
2017-10-18T20:19:36.774Z,5.70
2017-10-18T20:22:04.373Z,6.37
2017-10-18T20:24:31.984Z,4.70
2017-10-18T20:26:59.613Z,4.37
2017-10-18T20:29:27.973Z,5.30
2017-10-18T20:31:55.604Z,4.33
2017-10-18T20:34:23.201Z,5.50
2017-10-18T20:36:50.836Z,4.63
2017-10-18T20:39:18.431Z,5.20
2017-10-18T20:41:46.793Z,5.93
2017-10-18T20:44:14.443Z,5.00
2017-10-18T20:46:42.037Z,5.37
2017-10-18T20:49:10.437Z,4.57
2017-10-18T20:51:38.044Z,5.77
2017-10-18T20:54:05.675Z,5.57
2017-10-18T20:56:33.271Z,6.83
2017-10-18T20:59:00.865Z,5.30
2017-10-18T21:01:29.267Z,7.20
2017-10-18T21:03:56.865Z,6.57
2017-10-18T21:06:24.500Z,6.30
2017-10-18T21:08:52.102Z,6.70
2017-10-18T21:11:20.508Z,6.77
2017-10-18T21:13:48.115Z,7.57
2017-10-18T21:16:15.786Z,5.20
2017-10-18T21:18:43.413Z,5.73
2017-10-18T21:21:11.009Z,5.33
2017-10-18T21:23:38.644Z,6.33
2017-10-18T21:26:06.421Z,5.63
2017-10-18T21:28:34.074Z,6.20
2017-10-18T21:31:01.677Z,5.80
2017-10-18T21:33:29.404Z,6.77
2017-10-18T21:35:57.029Z,5.93
2017-10-18T21:38:24.631Z,5.30
2017-10-18T21:40:52.277Z,6.37
2017-10-18T21:43:19.878Z,6.40
2017-10-18T21:45:49.037Z,4.90
2017-10-18T21:48:16.628Z,5.33
2017-10-18T21:50:44.225Z,5.73
2017-10-18T21:53:12.617Z,5.77
2017-10-18T21:55:40.213Z,5.47
2017-10-18T21:58:07.868Z,6.50
2017-10-18T22:00:35.546Z,5.60
2017-10-18T22:03:03.182Z,6.60
2017-10-18T22:05:30.798Z,7.53
2017-10-18T22:07:59.161Z,7.37
2017-10-18T22:10:26.781Z,6.23
2017-10-18T22:12:54.378Z,6.90
2017-10-18T22:15:22.007Z,7.30
2017-10-18T22:17:49.609Z,7.60
2017-10-18T22:20:17.247Z,7.57
2017-10-18T22:22:44.847Z,8.40
2017-10-18T22:25:13.220Z,9.67
2017-10-18T22:27:41.609Z,8.87
2017-10-18T22:30:09.981Z,9.00
2017-10-18T22:32:38.364Z,7.80
2017-10-18T22:35:06.734Z,7.63
2017-10-18T22:37:35.129Z,6.77
2017-10-18T22:40:02.741Z,7.40
2017-10-18T22:42:30.345Z,6.10
2017-10-18T22:44:58.737Z,7.80
2017-10-18T22:47:26.341Z,9.30
2017-10-18T22:49:53.974Z,8.13
2017-10-18T22:52:21.580Z,7.83
2017-10-18T22:54:49.213Z,9.10
2017-10-18T22:57:16.822Z,8.57
2017-10-18T22:59:45.193Z,7.67
2017-10-18T23:02:13.589Z,8.30
2017-10-18T23:04:41.202Z,9.27
2017-10-18T23:07:08.825Z,9.27
2017-10-18T23:09:36.429Z,7.73
2017-10-18T23:12:04.061Z,8.13
2017-10-18T23:14:31.665Z,8.30
2017-10-18T23:16:59.261Z,8.57
2017-10-18T23:19:26.885Z,8.50
2017-10-18T23:21:54.488Z,8.70
2017-10-18T23:24:22.122Z,8.10
2017-10-18T23:26:49.765Z,9.53
2017-10-18T23:29:17.401Z,8.50
2017-10-18T23:31:45.001Z,8.20
2017-10-18T23:34:13.367Z,8.17
2017-10-18T23:36:40.997Z,7.10
2017-10-18T23:39:08.593Z,8.80
2017-10-18T23:41:36.215Z,7.07
2017-10-18T23:44:03.825Z,8.60
2017-10-18T23:46:32.254Z,8.30
2017-10-18T23:48:59.845Z,8.77
2017-10-18T23:51:27.445Z,8.00
2017-10-18T23:53:55.121Z,7.93
2017-10-18T23:56:22.726Z,9.50
2017-10-18T23:58:50.360Z,8.20
